KPIL

Port Isabel-Cameron County Airport

Port Isabel, Texas, USA
METAR KPIL 200520Z AUTO 18007KT 9SM -RA FEW015 BKN021 OVC080 25/22 A2978 RMK AO2 LTG DSNT NE AND E P0001 T02500222
Observed Flight Rules
Jun-20 @ 05:20 UTC (21 minutes ago) Marginal Visual Flight Rules
Wind Visibility Clouds Conditions
180° at 7 knots 9 miles
  • Few at 1,500' AGL
  • Broken at 2,100' AGL
  • Overcast at 8,000' AGL
  • Light Rain
Temperatures Readings Precipitation
Current 25°C / 77°F
Dewpoint 22°C / 72°F
Humidity 83%
Altimeter 29.78" Hg
Pressure 1008 hPa
Elevation 5
Current Rain 0.01
METAR KPIL 200520Z AUTO 18007KT 9SM -RA FEW015 BKN021 OVC080 25/22 A2978 RMK AO2 LTG DSNT NE AND E P0001 T02500222
Observed Flight Rules
Jun-20 @ 05:20 UTC
(21 minutes ago)
MVFR
Wind Visibility
180° at 7 knots 9 miles
Clouds
  • Few at 1,500' AGL
  • Broken at 2,100' AGL
  • Overcast at 8,000' AGL
Conditions
  • Light Rain
Temperature Dewpoint
25°C / 77°F 22°C / 72°F
Humidity Altimeter Pressure
83% 29.78" Hg 1008 hPa
Current Rain
0.01